createdAt,value
2018-06-19T00:00:08.589Z,1029.12336146
2018-06-19T00:00:20.980Z,1029.12336146
2018-06-19T00:00:33.406Z,1029.12336146
2018-06-19T00:00:45.877Z,1029.12336146
2018-06-19T00:00:58.327Z,1029.12336146
2018-06-19T00:01:10.911Z,1029.12336146
2018-06-19T00:01:23.342Z,1029.12336146
2018-06-19T00:01:35.739Z,1029.12336146
2018-06-19T00:01:48.133Z,1029.12336146
2018-06-19T00:02:00.570Z,1029.12336146
2018-06-19T00:02:12.992Z,1029.12336146
2018-06-19T00:02:25.421Z,1029.12336146
2018-06-19T00:02:37.923Z,1029.12336146
2018-06-19T00:02:50.324Z,1029.12336146
2018-06-19T00:03:02.765Z,1029.12336146
2018-06-19T00:03:15.224Z,1029.12336146
2018-06-19T00:03:27.607Z,1029.12336146
2018-06-19T00:03:40.016Z,1029.12336146
2018-06-19T00:03:52.430Z,1029.12336146
2018-06-19T00:04:04.855Z,1029.12336146
2018-06-19T00:04:17.254Z,1029.12336146
2018-06-19T00:04:29.658Z,1029.12336146
2018-06-19T00:04:42.069Z,1029.12336146
2018-06-19T00:04:54.532Z,1029.12336146
2018-06-19T00:05:06.955Z,1029.12336146
2018-06-19T00:05:19.342Z,1029.12336146
2018-06-19T00:05:31.750Z,1029.12336146
2018-06-19T00:05:44.143Z,1029.12336146
2018-06-19T00:05:56.575Z,1029.12336146
2018-06-19T00:06:08.968Z,1029.08949758
2018-06-19T00:06:21.385Z,1029.08949758
2018-06-19T00:06:34.162Z,1029.08949758
2018-06-19T00:06:46.562Z,1029.08949758
2018-06-19T00:06:58.957Z,1029.08949758
2018-06-19T00:07:11.388Z,1029.15722535
2018-06-19T00:07:23.876Z,1029.15722535
2018-06-19T00:07:36.275Z,1029.15722535
2018-06-19T00:07:48.730Z,1029.15722535
2018-06-19T00:08:01.143Z,1029.19108923
2018-06-19T00:08:13.535Z,1029.19108923
2018-06-19T00:08:25.955Z,1029.19108923
2018-06-19T00:08:38.339Z,1029.19108923
2018-06-19T00:08:50.778Z,1029.19108923
2018-06-19T00:09:03.216Z,1029.15722535
2018-06-19T00:09:15.659Z,1029.15722535
2018-06-19T00:09:28.071Z,1029.15722535
2018-06-19T00:09:40.494Z,1029.15722535
2018-06-19T00:09:52.896Z,1029.15722535
2018-06-19T00:10:05.300Z,1029.08949758
2018-06-19T00:10:17.709Z,1029.08949758
2018-06-19T00:10:30.108Z,1029.08949758
2018-06-19T00:10:42.548Z,1029.08949758
2018-06-19T00:10:54.973Z,1029.08949758
2018-06-19T00:11:07.356Z,1029.15722535
2018-06-19T00:11:19.758Z,1029.15722535
2018-06-19T00:11:32.341Z,1029.15722535
2018-06-19T00:11:44.768Z,1029.15722535
2018-06-19T00:11:57.174Z,1029.15722535
2018-06-19T00:12:09.566Z,1029.02176982
2018-06-19T00:12:21.990Z,1029.02176982
2018-06-19T00:12:34.371Z,1029.02176982
2018-06-19T00:12:46.773Z,1029.02176982
2018-06-19T00:12:59.182Z,1029.02176982
2018-06-19T00:13:11.579Z,1029.08949758
2018-06-19T00:13:24.005Z,1029.08949758
2018-06-19T00:13:36.431Z,1029.08949758
2018-06-19T00:13:48.847Z,1029.08949758
2018-06-19T00:14:01.244Z,1029.0556337
2018-06-19T00:14:13.638Z,1029.0556337
2018-06-19T00:14:26.063Z,1029.0556337
2018-06-19T00:14:38.465Z,1029.0556337
2018-06-19T00:14:50.861Z,1029.0556337
2018-06-19T00:15:03.259Z,1029.15722535
2018-06-19T00:15:15.669Z,1029.15722535
2018-06-19T00:15:28.125Z,1029.15722535
2018-06-19T00:15:40.527Z,1029.15722535
2018-06-19T00:15:52.960Z,1029.15722535
2018-06-19T00:16:05.396Z,1029.19108923
2018-06-19T00:16:17.867Z,1029.19108923
2018-06-19T00:16:30.271Z,1029.19108923
2018-06-19T00:16:42.708Z,1029.19108923
2018-06-19T00:16:55.110Z,1029.19108923
2018-06-19T00:17:07.506Z,1029.12336146
2018-06-19T00:17:19.895Z,1029.12336146
2018-06-19T00:17:32.285Z,1029.12336146
2018-06-19T00:17:44.711Z,1029.12336146
2018-06-19T00:17:57.336Z,1029.12336146
2018-06-19T00:18:09.738Z,1029.19108923
2018-06-19T00:18:22.189Z,1029.19108923
2018-06-19T00:18:34.601Z,1029.19108923
2018-06-19T00:18:47.012Z,1029.19108923
2018-06-19T00:18:59.409Z,1029.19108923
2018-06-19T00:19:11.953Z,1029.22495311
2018-06-19T00:19:24.360Z,1029.22495311
2018-06-19T00:19:36.749Z,1029.22495311
2018-06-19T00:19:49.149Z,1029.22495311
2018-06-19T00:20:01.558Z,1029.12336146
2018-06-19T00:20:13.965Z,1029.12336146
2018-06-19T00:20:26.352Z,1029.12336146
2018-06-19T00:20:38.753Z,1029.12336146
2018-06-19T00:20:51.145Z,1029.12336146
2018-06-19T00:21:03.700Z,1029.12336146
2018-06-19T00:21:16.093Z,1029.12336146
2018-06-19T00:21:28.497Z,1029.12336146
2018-06-19T00:21:40.969Z,1029.12336146
2018-06-19T00:21:53.351Z,1029.12336146
2018-06-19T00:22:05.759Z,1029.08949758
2018-06-19T00:22:18.167Z,1029.08949758
2018-06-19T00:22:30.586Z,1029.08949758
2018-06-19T00:22:42.997Z,1029.08949758
2018-06-19T00:22:55.395Z,1029.08949758
2018-06-19T00:23:07.775Z,1029.12336146
2018-06-19T00:23:20.227Z,1029.12336146
2018-06-19T00:23:32.619Z,1029.12336146
2018-06-19T00:23:45.051Z,1029.12336146
2018-06-19T00:23:57.575Z,1029.12336146
2018-06-19T00:24:09.986Z,1029.12336146
2018-06-19T00:24:22.363Z,1029.12336146
2018-06-19T00:24:34.767Z,1029.12336146
2018-06-19T00:24:47.150Z,1029.12336146
2018-06-19T00:24:59.529Z,1029.12336146
2018-06-19T00:25:11.935Z,1029.15722535
2018-06-19T00:25:24.332Z,1029.15722535
2018-06-19T00:25:36.715Z,1029.15722535
2018-06-19T00:25:49.104Z,1029.15722535
2018-06-19T00:26:01.490Z,1029.08949758
2018-06-19T00:26:13.903Z,1029.08949758
2018-06-19T00:26:26.336Z,1029.08949758
2018-06-19T00:26:38.736Z,1029.08949758
2018-06-19T00:26:51.167Z,1029.08949758
2018-06-19T00:27:03.861Z,1029.08949758
2018-06-19T00:27:16.262Z,1029.08949758
2018-06-19T00:27:28.678Z,1029.08949758
2018-06-19T00:27:41.075Z,1029.08949758
2018-06-19T00:27:53.721Z,1029.08949758
2018-06-19T00:28:06.127Z,1029.15722535
2018-06-19T00:28:18.517Z,1029.15722535
2018-06-19T00:28:30.908Z,1029.15722535
2018-06-19T00:28:43.321Z,1029.15722535
2018-06-19T00:28:55.772Z,1029.15722535
2018-06-19T00:29:08.168Z,1029.08949758
2018-06-19T00:29:20.624Z,1029.08949758
2018-06-19T00:29:33.028Z,1029.08949758
2018-06-19T00:29:45.542Z,1029.08949758
2018-06-19T00:29:57.933Z,1029.08949758
2018-06-19T00:30:10.354Z,1029.12336146
2018-06-19T00:30:22.739Z,1029.12336146
2018-06-19T00:30:35.131Z,1029.12336146
2018-06-19T00:30:47.517Z,1029.12336146
2018-06-19T00:30:59.927Z,1029.12336146
2018-06-19T00:31:12.341Z,1029.0556337
2018-06-19T00:31:24.728Z,1029.0556337
2018-06-19T00:31:37.263Z,1029.0556337
2018-06-19T00:31:49.741Z,1029.0556337
2018-06-19T00:32:02.167Z,1029.0556337
2018-06-19T00:32:14.574Z,1029.0556337
2018-06-19T00:32:26.985Z,1029.0556337
2018-06-19T00:32:39.387Z,1029.0556337
2018-06-19T00:32:51.801Z,1029.0556337
2018-06-19T00:33:04.199Z,1029.0556337
2018-06-19T00:33:16.609Z,1029.0556337
2018-06-19T00:33:29.045Z,1029.0556337
2018-06-19T00:33:41.447Z,1029.0556337
2018-06-19T00:33:53.854Z,1029.0556337
2018-06-19T00:34:06.276Z,1029.08949758
2018-06-19T00:34:18.704Z,1029.08949758
2018-06-19T00:34:31.111Z,1029.08949758
2018-06-19T00:34:43.594Z,1029.08949758
2018-06-19T00:34:55.996Z,1029.08949758
2018-06-19T00:35:08.416Z,1029.12336146
2018-06-19T00:35:20.859Z,1029.12336146
2018-06-19T00:35:33.288Z,1029.12336146
2018-06-19T00:35:45.690Z,1029.12336146
2018-06-19T00:35:58.134Z,1029.12336146
2018-06-19T00:36:10.559Z,1029.0556337
2018-06-19T00:36:22.972Z,1029.0556337
2018-06-19T00:36:35.368Z,1029.0556337
2018-06-19T00:36:47.767Z,1029.0556337
2018-06-19T00:37:00.203Z,1029.0556337
2018-06-19T00:37:12.656Z,1029.08949758
2018-06-19T00:37:25.066Z,1029.08949758
2018-06-19T00:37:37.444Z,1029.08949758
2018-06-19T00:37:49.839Z,1029.08949758
2018-06-19T00:38:02.233Z,1029.08949758
2018-06-19T00:38:14.631Z,1029.08949758
2018-06-19T00:38:27.034Z,1029.08949758
2018-06-19T00:38:39.435Z,1029.08949758
2018-06-19T00:38:51.825Z,1029.08949758
2018-06-19T00:39:04.240Z,1029.0556337
2018-06-19T00:39:16.638Z,1029.0556337
2018-06-19T00:39:29.043Z,1029.0556337
2018-06-19T00:39:41.574Z,1029.0556337
2018-06-19T00:39:53.984Z,1029.0556337
2018-06-19T00:40:06.392Z,1029.08949758
2018-06-19T00:40:18.790Z,1029.08949758
2018-06-19T00:40:31.197Z,1029.08949758
2018-06-19T00:40:43.585Z,1029.08949758
2018-06-19T00:40:55.962Z,1029.08949758
2018-06-19T00:41:08.362Z,1029.02176982
2018-06-19T00:41:20.749Z,1029.02176982
2018-06-19T00:41:33.151Z,1029.02176982
2018-06-19T00:41:45.624Z,1029.02176982
2018-06-19T00:41:58.163Z,1029.02176982
2018-06-19T00:42:10.563Z,1029.0556337
2018-06-19T00:42:23.003Z,1029.0556337
2018-06-19T00:42:35.405Z,1029.0556337
2018-06-19T00:42:47.811Z,1029.0556337
2018-06-19T00:43:00.203Z,1029.0556337
2018-06-19T00:43:12.630Z,1029.02176982
2018-06-19T00:43:25.035Z,1029.02176982
2018-06-19T00:43:37.435Z,1029.02176982
2018-06-19T00:43:49.844Z,1029.02176982
2018-06-19T00:44:02.243Z,1029.12336146
2018-06-19T00:44:14.650Z,1029.12336146
2018-06-19T00:44:27.057Z,1029.12336146
2018-06-19T00:44:39.442Z,1029.12336146
2018-06-19T00:44:51.844Z,1029.12336146
2018-06-19T00:45:04.263Z,1029.02176982
2018-06-19T00:45:16.688Z,1029.02176982
2018-06-19T00:45:29.079Z,1029.02176982
2018-06-19T00:45:41.493Z,1029.02176982
2018-06-19T00:45:54.179Z,1029.02176982
2018-06-19T00:46:06.656Z,1029.02176982
2018-06-19T00:46:19.051Z,1029.02176982
2018-06-19T00:46:31.468Z,1029.02176982
2018-06-19T00:46:43.859Z,1029.02176982
2018-06-19T00:46:56.256Z,1029.02176982
2018-06-19T00:47:08.661Z,1029.02176982
2018-06-19T00:47:21.059Z,1029.02176982
2018-06-19T00:47:33.492Z,1029.02176982
2018-06-19T00:47:45.957Z,1029.02176982
2018-06-19T00:47:58.354Z,1029.02176982
2018-06-19T00:48:10.767Z,1028.98790594
2018-06-19T00:48:23.195Z,1028.98790594
2018-06-19T00:48:35.726Z,1028.98790594
2018-06-19T00:48:48.122Z,1028.98790594
2018-06-19T00:49:00.512Z,1028.98790594
2018-06-19T00:49:12.948Z,1028.98790594
2018-06-19T00:49:25.379Z,1028.98790594
2018-06-19T00:49:37.768Z,1028.98790594
2018-06-19T00:49:50.181Z,1028.98790594
2018-06-19T00:50:02.610Z,1029.02176982
2018-06-19T00:50:15.013Z,1029.02176982
2018-06-19T00:50:27.414Z,1029.02176982
2018-06-19T00:50:39.812Z,1029.02176982
2018-06-19T00:50:52.198Z,1029.02176982
2018-06-19T00:51:04.602Z,1029.0556337
2018-06-19T00:51:17.001Z,1029.0556337
2018-06-19T00:51:29.382Z,1029.0556337
2018-06-19T00:51:41.844Z,1029.0556337
2018-06-19T00:51:54.254Z,1029.0556337
2018-06-19T00:52:06.667Z,1029.02176982
2018-06-19T00:52:19.088Z,1029.02176982
2018-06-19T00:52:31.516Z,1029.02176982
2018-06-19T00:52:43.905Z,1029.02176982
2018-06-19T00:52:56.295Z,1029.02176982
2018-06-19T00:53:08.687Z,1029.0556337
2018-06-19T00:53:21.085Z,1029.0556337
2018-06-19T00:53:33.509Z,1029.0556337
2018-06-19T00:53:45.919Z,1029.0556337
2018-06-19T00:53:58.306Z,1029.0556337
2018-06-19T00:54:10.765Z,1029.02176982
2018-06-19T00:54:23.165Z,1029.02176982
2018-06-19T00:54:35.587Z,1029.02176982
2018-06-19T00:54:48.006Z,1029.02176982
2018-06-19T00:55:00.408Z,1029.02176982
2018-06-19T00:55:12.836Z,1029.0556337
2018-06-19T00:55:25.258Z,1029.0556337
2018-06-19T00:55:37.711Z,1029.0556337
2018-06-19T00:55:50.116Z,1029.0556337
2018-06-19T00:56:02.505Z,1029.02176982
2018-06-19T00:56:14.902Z,1029.02176982
2018-06-19T00:56:27.460Z,1029.02176982
2018-06-19T00:56:40.574Z,1029.02176982
2018-06-19T00:56:53.014Z,1029.02176982
2018-06-19T00:57:05.411Z,1029.08949758
2018-06-19T00:57:17.829Z,1029.08949758
2018-06-19T00:57:30.230Z,1029.08949758
2018-06-19T00:57:42.633Z,1029.08949758
2018-06-19T00:57:55.035Z,1029.08949758
2018-06-19T00:58:07.475Z,1028.95404206
2018-06-19T00:58:19.870Z,1028.95404206
2018-06-19T00:58:32.319Z,1028.95404206
2018-06-19T00:58:44.714Z,1028.95404206
2018-06-19T00:58:57.109Z,1028.95404206
2018-06-19T00:59:09.512Z,1029.02176982
2018-06-19T00:59:22.136Z,1029.02176982
2018-06-19T00:59:34.537Z,1029.02176982
2018-06-19T00:59:46.937Z,1029.02176982
2018-06-19T00:59:59.362Z,1029.02176982
2018-06-19T01:00:11.782Z,1028.98790594
2018-06-19T01:00:24.178Z,1028.98790594
2018-06-19T01:00:36.627Z,1028.98790594
2018-06-19T01:00:49.077Z,1028.98790594
2018-06-19T01:01:01.499Z,1028.98790594
2018-06-19T01:01:14.065Z,1028.98790594
2018-06-19T01:01:26.482Z,1028.98790594
2018-06-19T01:01:38.906Z,1028.98790594
2018-06-19T01:01:51.335Z,1028.98790594
2018-06-19T01:02:03.828Z,1028.98790594
2018-06-19T01:02:16.268Z,1028.98790594
2018-06-19T01:02:28.652Z,1028.98790594
2018-06-19T01:02:41.189Z,1028.98790594
2018-06-19T01:02:53.605Z,1028.98790594
2018-06-19T01:03:06.021Z,1028.98790594
2018-06-19T01:03:18.433Z,1028.98790594
2018-06-19T01:03:30.809Z,1028.98790594
2018-06-19T01:03:43.220Z,1028.98790594
2018-06-19T01:03:55.638Z,1028.98790594
2018-06-19T01:04:08.106Z,1028.95404206
2018-06-19T01:04:20.519Z,1028.95404206
2018-06-19T01:04:32.937Z,1028.95404206
2018-06-19T01:04:45.341Z,1028.95404206
2018-06-19T01:04:57.729Z,1028.95404206
2018-06-19T01:05:10.113Z,1028.95404206
2018-06-19T01:05:22.497Z,1028.95404206
2018-06-19T01:05:34.896Z,1028.95404206
2018-06-19T01:05:47.285Z,1028.95404206
2018-06-19T01:05:59.673Z,1028.95404206
2018-06-19T01:06:12.085Z,1028.95404206
2018-06-19T01:06:24.538Z,1028.95404206
2018-06-19T01:06:37.072Z,1028.95404206
2018-06-19T01:06:49.608Z,1028.95404206
2018-06-19T01:07:01.997Z,1029.0556337
2018-06-19T01:07:14.485Z,1029.0556337
2018-06-19T01:07:26.897Z,1029.0556337
2018-06-19T01:07:39.286Z,1029.0556337
2018-06-19T01:07:51.676Z,1029.0556337
2018-06-19T01:08:04.098Z,1028.95404206
2018-06-19T01:08:16.512Z,1028.95404206
2018-06-19T01:08:28.894Z,1028.95404206
2018-06-19T01:08:41.290Z,1028.95404206
2018-06-19T01:08:53.694Z,1028.95404206
2018-06-19T01:09:06.110Z,1028.98790594
2018-06-19T01:09:18.509Z,1028.98790594
2018-06-19T01:09:30.920Z,1028.98790594
2018-06-19T01:09:43.367Z,1028.98790594
2018-06-19T01:09:55.772Z,1028.98790594
2018-06-19T01:10:08.178Z,1029.02176982
2018-06-19T01:10:20.590Z,1029.02176982
2018-06-19T01:10:33.053Z,1029.02176982
2018-06-19T01:10:45.436Z,1029.02176982
2018-06-19T01:10:57.855Z,1029.02176982
2018-06-19T01:11:10.275Z,1028.88631429
2018-06-19T01:11:22.689Z,1028.88631429
2018-06-19T01:11:35.089Z,1028.88631429
2018-06-19T01:11:47.531Z,1028.88631429
2018-06-19T01:12:00.086Z,1028.88631429
2018-06-19T01:12:12.486Z,1028.92017817
2018-06-19T01:12:24.890Z,1028.92017817
2018-06-19T01:12:37.305Z,1028.92017817
2018-06-19T01:12:49.719Z,1028.92017817
2018-06-19T01:13:02.100Z,1029.0556337
2018-06-19T01:13:14.499Z,1029.0556337
2018-06-19T01:13:26.917Z,1029.0556337
2018-06-19T01:13:39.307Z,1029.0556337
2018-06-19T01:13:51.705Z,1029.0556337
2018-06-19T01:14:04.128Z,1028.92017817
2018-06-19T01:14:16.560Z,1028.92017817
2018-06-19T01:14:28.967Z,1028.92017817
2018-06-19T01:14:41.369Z,1028.92017817
2018-06-19T01:14:53.763Z,1028.92017817
2018-06-19T01:15:06.189Z,1028.92017817
2018-06-19T01:15:18.589Z,1028.92017817
2018-06-19T01:15:30.991Z,1028.92017817
2018-06-19T01:15:43.419Z,1028.92017817
2018-06-19T01:15:55.804Z,1028.92017817
2018-06-19T01:16:08.230Z,1028.95404206
2018-06-19T01:16:20.616Z,1028.95404206
2018-06-19T01:16:33.019Z,1028.95404206
2018-06-19T01:16:45.453Z,1028.95404206
2018-06-19T01:16:57.940Z,1028.95404206
2018-06-19T01:17:10.360Z,1028.98790594
2018-06-19T01:17:22.771Z,1028.98790594
2018-06-19T01:17:35.178Z,1028.98790594
2018-06-19T01:17:47.605Z,1028.98790594
2018-06-19T01:18:00.125Z,1028.98790594
2018-06-19T01:18:12.514Z,1028.92017817
2018-06-19T01:18:24.913Z,1028.92017817
2018-06-19T01:18:37.299Z,1028.92017817
2018-06-19T01:18:49.677Z,1028.92017817
2018-06-19T01:19:02.060Z,1028.95404206
2018-06-19T01:19:14.555Z,1028.95404206
2018-06-19T01:19:26.962Z,1028.95404206
2018-06-19T01:19:39.365Z,1028.95404206
2018-06-19T01:19:51.757Z,1028.95404206
2018-06-19T01:20:04.154Z,1028.98790594
2018-06-19T01:20:16.559Z,1028.98790594
2018-06-19T01:20:28.964Z,1028.98790594
2018-06-19T01:20:41.346Z,1028.98790594
2018-06-19T01:20:53.749Z,1028.98790594
2018-06-19T01:21:06.143Z,1028.98790594
2018-06-19T01:21:18.549Z,1028.98790594
2018-06-19T01:21:31.120Z,1028.98790594
2018-06-19T01:21:43.526Z,1028.98790594
2018-06-19T01:21:55.973Z,1028.98790594
2018-06-19T01:22:08.390Z,1029.02176982
2018-06-19T01:22:20.785Z,1029.02176982
2018-06-19T01:22:33.193Z,1029.02176982
2018-06-19T01:22:45.576Z,1029.02176982
2018-06-19T01:22:57.968Z,1029.02176982
2018-06-19T01:23:10.381Z,1028.95404206
2018-06-19T01:23:22.757Z,1028.95404206
2018-06-19T01:23:35.159Z,1028.95404206
2018-06-19T01:23:47.545Z,1028.95404206
2018-06-19T01:24:00.089Z,1028.95404206
2018-06-19T01:24:12.502Z,1029.02176982
2018-06-19T01:24:24.934Z,1029.02176982
2018-06-19T01:24:37.329Z,1029.02176982
2018-06-19T01:24:49.733Z,1029.02176982
2018-06-19T01:25:02.127Z,1029.02176982
2018-06-19T01:25:14.542Z,1029.02176982
2018-06-19T01:25:27.098Z,1029.02176982
2018-06-19T01:25:39.631Z,1029.02176982
2018-06-19T01:25:52.029Z,1029.02176982
2018-06-19T01:26:04.419Z,1029.08949758
2018-06-19T01:26:16.804Z,1029.08949758
2018-06-19T01:26:29.204Z,1029.08949758
2018-06-19T01:26:41.616Z,1029.08949758
2018-06-19T01:26:54.020Z,1029.08949758
2018-06-19T01:27:06.693Z,1029.0556337
2018-06-19T01:27:19.247Z,1029.0556337
2018-06-19T01:27:31.656Z,1029.0556337
2018-06-19T01:27:44.048Z,1029.0556337
2018-06-19T01:27:56.455Z,1029.0556337
2018-06-19T01:28:08.859Z,1029.0556337
2018-06-19T01:28:21.308Z,1029.0556337
2018-06-19T01:28:33.796Z,1029.0556337
2018-06-19T01:28:46.925Z,1029.0556337
2018-06-19T01:28:59.339Z,1029.0556337
2018-06-19T01:29:11.734Z,1029.08949758
2018-06-19T01:29:24.134Z,1029.08949758
2018-06-19T01:29:36.533Z,1029.08949758
2018-06-19T01:29:48.943Z,1029.08949758
2018-06-19T01:30:01.363Z,1029.12336146
2018-06-19T01:30:13.790Z,1029.12336146
2018-06-19T01:30:26.189Z,1029.12336146
2018-06-19T01:30:38.585Z,1029.12336146
2018-06-19T01:30:51.002Z,1029.12336146
2018-06-19T01:31:03.389Z,1029.0556337
2018-06-19T01:31:15.847Z,1029.0556337
2018-06-19T01:31:28.241Z,1029.0556337
2018-06-19T01:31:40.677Z,1029.0556337
2018-06-19T01:31:53.102Z,1029.0556337
2018-06-19T01:32:05.493Z,1028.98790594
2018-06-19T01:32:17.952Z,1028.98790594
2018-06-19T01:32:30.332Z,1028.98790594
2018-06-19T01:32:42.731Z,1028.98790594
2018-06-19T01:32:55.139Z,1028.98790594
2018-06-19T01:33:07.535Z,1029.0556337
2018-06-19T01:33:19.941Z,1029.0556337
2018-06-19T01:33:32.733Z,1029.0556337
2018-06-19T01:33:45.160Z,1029.0556337
2018-06-19T01:33:57.557Z,1029.0556337
2018-06-19T01:34:09.950Z,1029.08949758
2018-06-19T01:34:22.337Z,1029.08949758
2018-06-19T01:34:34.750Z,1029.08949758
2018-06-19T01:34:47.154Z,1029.08949758
2018-06-19T01:34:59.530Z,1029.08949758
2018-06-19T01:35:11.958Z,1029.0556337
2018-06-19T01:35:24.372Z,1029.0556337
2018-06-19T01:35:36.766Z,1029.0556337
2018-06-19T01:35:49.171Z,1029.0556337
2018-06-19T01:36:01.574Z,1028.98790594
2018-06-19T01:36:13.997Z,1028.98790594
2018-06-19T01:36:26.391Z,1028.98790594
2018-06-19T01:36:38.786Z,1028.98790594
2018-06-19T01:36:51.197Z,1028.98790594
2018-06-19T01:37:03.601Z,1028.98790594
2018-06-19T01:37:16.091Z,1028.98790594
2018-06-19T01:37:28.489Z,1028.98790594
2018-06-19T01:37:40.931Z,1028.98790594
2018-06-19T01:37:53.466Z,1028.98790594
2018-06-19T01:38:06.848Z,1029.02176982
2018-06-19T01:38:20.887Z,1029.02176982
2018-06-19T01:38:33.350Z,1029.02176982
2018-06-19T01:38:45.729Z,1029.02176982
2018-06-19T01:38:58.145Z,1029.02176982
2018-06-19T01:39:10.545Z,1028.92017817
2018-06-19T01:39:22.943Z,1028.92017817
2018-06-19T01:39:35.343Z,1028.92017817
2018-06-19T01:39:47.732Z,1028.92017817
2018-06-19T01:40:00.152Z,1028.92017817
2018-06-19T01:40:12.560Z,1029.0556337
2018-06-19T01:40:24.960Z,1029.0556337
2018-06-19T01:40:37.388Z,1029.0556337
2018-06-19T01:40:49.789Z,1029.0556337
2018-06-19T01:41:02.370Z,1029.0556337
2018-06-19T01:41:14.766Z,1029.0556337
2018-06-19T01:41:27.168Z,1029.0556337
2018-06-19T01:41:39.567Z,1029.0556337
2018-06-19T01:41:52.022Z,1029.0556337
2018-06-19T01:42:04.481Z,1029.02176982
2018-06-19T01:42:16.950Z,1029.02176982
2018-06-19T01:42:29.349Z,1029.02176982
2018-06-19T01:42:41.760Z,1029.02176982
2018-06-19T01:42:54.165Z,1029.02176982
2018-06-19T01:43:06.585Z,1029.02176982
2018-06-19T01:43:18.994Z,1029.02176982
2018-06-19T01:43:31.393Z,1029.02176982
2018-06-19T01:43:43.959Z,1029.02176982
2018-06-19T01:43:56.374Z,1029.02176982
2018-06-19T01:44:08.770Z,1029.0556337
2018-06-19T01:44:21.178Z,1029.0556337
2018-06-19T01:44:33.571Z,1029.0556337
2018-06-19T01:44:45.962Z,1029.0556337
2018-06-19T01:44:58.374Z,1029.0556337
2018-06-19T01:45:10.778Z,1029.02176982
2018-06-19T01:45:23.176Z,1029.02176982
2018-06-19T01:45:35.561Z,1029.02176982
2018-06-19T01:45:47.967Z,1029.02176982
2018-06-19T01:46:00.533Z,1029.02176982
2018-06-19T01:46:12.918Z,1028.98790594
2018-06-19T01:46:25.309Z,1028.98790594
2018-06-19T01:46:37.713Z,1028.98790594
2018-06-19T01:46:50.129Z,1028.98790594
2018-06-19T01:47:02.561Z,1029.02176982
2018-06-19T01:47:14.981Z,1029.02176982
2018-06-19T01:47:27.397Z,1029.02176982
2018-06-19T01:47:39.789Z,1029.02176982
2018-06-19T01:47:52.183Z,1029.02176982
2018-06-19T01:48:04.577Z,1028.98790594
2018-06-19T01:48:16.968Z,1028.98790594
2018-06-19T01:48:29.356Z,1028.98790594
2018-06-19T01:48:41.902Z,1028.98790594
2018-06-19T01:48:54.343Z,1028.98790594
2018-06-19T01:49:06.783Z,1028.95404206
2018-06-19T01:49:19.205Z,1028.95404206
2018-06-19T01:49:31.614Z,1028.95404206
2018-06-19T01:49:44.034Z,1028.95404206
2018-06-19T01:49:56.443Z,1028.95404206
2018-06-19T01:50:08.825Z,1028.98790594
2018-06-19T01:50:21.249Z,1028.98790594
2018-06-19T01:50:33.646Z,1028.98790594
2018-06-19T01:50:46.024Z,1028.98790594
2018-06-19T01:50:58.439Z,1028.98790594
2018-06-19T01:51:10.857Z,1028.95404206
2018-06-19T01:51:23.260Z,1028.95404206
2018-06-19T01:51:35.658Z,1028.95404206
2018-06-19T01:51:48.046Z,1028.95404206
2018-06-19T01:52:00.425Z,1028.95404206
2018-06-19T01:52:12.830Z,1028.98790594
2018-06-19T01:52:25.238Z,1028.98790594
2018-06-19T01:52:37.636Z,1028.98790594
2018-06-19T01:52:50.025Z,1028.98790594
2018-06-19T01:53:02.439Z,1028.98790594
2018-06-19T01:53:14.815Z,1028.98790594
2018-06-19T01:53:27.205Z,1028.98790594
2018-06-19T01:53:39.622Z,1028.98790594
2018-06-19T01:53:52.012Z,1028.98790594
2018-06-19T01:54:04.400Z,1028.92017817
2018-06-19T01:54:16.795Z,1028.92017817
2018-06-19T01:54:29.194Z,1028.92017817
2018-06-19T01:54:41.581Z,1028.92017817
2018-06-19T01:54:54.000Z,1028.92017817
2018-06-19T01:55:06.413Z,1028.95404206
2018-06-19T01:55:18.806Z,1028.95404206
2018-06-19T01:55:31.188Z,1028.95404206
2018-06-19T01:55:43.587Z,1028.95404206
2018-06-19T01:55:55.975Z,1028.95404206
2018-06-19T01:56:08.371Z,1028.95404206
2018-06-19T01:56:20.777Z,1028.95404206
2018-06-19T01:56:33.183Z,1028.95404206
2018-06-19T01:56:45.596Z,1028.95404206
2018-06-19T01:56:58.004Z,1028.95404206
2018-06-19T01:57:10.422Z,1028.95404206
2018-06-19T01:57:22.894Z,1028.95404206
2018-06-19T01:57:35.296Z,1028.95404206
2018-06-19T01:57:47.671Z,1028.95404206
2018-06-19T01:58:00.070Z,1028.95404206
2018-06-19T01:58:12.462Z,1028.92017817
2018-06-19T01:58:24.896Z,1028.92017817
2018-06-19T01:58:37.373Z,1028.92017817
2018-06-19T01:58:49.770Z,1028.92017817
2018-06-19T01:59:02.162Z,1028.88631429
2018-06-19T01:59:14.554Z,1028.88631429
2018-06-19T01:59:26.940Z,1028.88631429
2018-06-19T01:59:39.346Z,1028.88631429
2018-06-19T01:59:51.869Z,1028.88631429
2018-06-19T02:00:04.262Z,1028.92017817
2018-06-19T02:00:16.651Z,1028.92017817
2018-06-19T02:00:29.070Z,1028.92017817
2018-06-19T02:00:41.499Z,1028.92017817
2018-06-19T02:00:53.907Z,1028.92017817
2018-06-19T02:01:06.507Z,1028.92017817
2018-06-19T02:01:18.977Z,1028.92017817
2018-06-19T02:01:31.388Z,1028.92017817
2018-06-19T02:01:43.785Z,1028.92017817
2018-06-19T02:01:56.228Z,1028.92017817
2018-06-19T02:02:08.714Z,1028.88631429
2018-06-19T02:02:21.130Z,1028.88631429
2018-06-19T02:02:33.598Z,1028.88631429
2018-06-19T02:02:46.118Z,1028.88631429
2018-06-19T02:02:58.543Z,1028.88631429
2018-06-19T02:03:10.949Z,1028.88631429
2018-06-19T02:03:23.370Z,1028.88631429
2018-06-19T02:03:35.762Z,1028.88631429
2018-06-19T02:03:48.165Z,1028.88631429
2018-06-19T02:04:00.584Z,1028.88631429
2018-06-19T02:04:12.979Z,1028.81858653
2018-06-19T02:04:25.430Z,1028.81858653
2018-06-19T02:04:37.817Z,1028.81858653
2018-06-19T02:04:50.243Z,1028.81858653
2018-06-19T02:05:02.635Z,1028.88631429
2018-06-19T02:05:15.029Z,1028.88631429
2018-06-19T02:05:27.448Z,1028.88631429
2018-06-19T02:05:39.873Z,1028.88631429
2018-06-19T02:05:52.287Z,1028.88631429
2018-06-19T02:06:04.692Z,1028.85245041
2018-06-19T02:06:17.089Z,1028.85245041
2018-06-19T02:06:29.617Z,1028.85245041
2018-06-19T02:06:42.033Z,1028.85245041
2018-06-19T02:06:54.527Z,1028.85245041
2018-06-19T02:07:06.948Z,1028.88631429
2018-06-19T02:07:19.441Z,1028.88631429
2018-06-19T02:07:31.821Z,1028.88631429
2018-06-19T02:07:44.209Z,1028.88631429